Time;durP1;ratioP1;P1;durP2;ratioP2;P2;SDS_P1;SDS_P2;PMS_P1;PMS_P2;Temp;Humidity;BMP_temperature;BMP_pressure;BME280_temperature;BME280_humidity;BME280_pressure;Samples;Min_cycle;Max_cycle;Signal;HPM_P1;HPM_P2
2022/07/10 00:00:08;;;;;;;35.35;8.10;;;;;;;16.95;100.00;98538.91;5062536;28;20040;-57
2022/07/10 00:02:33;;;;;;;27.63;6.53;;;;;;;17.09;100.00;98544.22;5062130;28;20044;-57
2022/07/10 00:04:58;;;;;;;22.42;6.10;;;;;;;17.13;100.00;98537.84;5063205;28;20052;-58
2022/07/10 00:07:24;;;;;;;24.10;6.40;;;;;;;16.91;100.00;98534.78;5062382;28;20052;-57
2022/07/10 00:09:49;;;;;;;31.80;7.25;;;;;;;16.43;100.00;98544.50;5062319;28;20039;-58
2022/07/10 00:12:14;;;;;;;21.27;5.65;;;;;;;16.66;100.00;98530.88;5062579;28;20597;-57
2022/07/10 00:14:40;;;;;;;23.80;6.28;;;;;;;16.47;100.00;98535.47;5061944;28;20027;-56
2022/07/10 00:17:05;;;;;;;28.67;6.50;;;;;;;16.43;100.00;98539.22;5062303;28;20064;-57
2022/07/10 00:19:30;;;;;;;24.30;6.60;;;;;;;16.35;100.00;98534.41;5062840;28;20028;-57
2022/07/10 00:21:56;;;;;;;24.42;5.97;;;;;;;16.50;100.00;98530.06;5061033;28;20044;-58
2022/07/10 00:24:21;;;;;;;26.30;5.93;;;;;;;16.60;100.00;98531.25;5061958;28;20024;-56
2022/07/10 00:26:47;;;;;;;23.45;6.35;;;;;;;16.54;100.00;98521.91;5061650;28;20039;-56
2022/07/10 00:29:13;;;;;;;27.55;6.20;;;;;;;16.80;100.00;98516.06;5062696;28;20032;-56
2022/07/10 00:31:38;;;;;;;23.23;6.57;;;;;;;16.27;100.00;98529.56;5060525;28;20383;-57
2022/07/10 00:34:04;;;;;;;31.38;7.00;;;;;;;16.13;100.00;98527.69;5062191;28;20112;-56
2022/07/10 00:36:29;;;;;;;23.50;6.35;;;;;;;16.02;100.00;98534.50;5061613;28;20047;-57
2022/07/10 00:38:54;;;;;;;23.92;6.38;;;;;;;16.13;100.00;98532.13;5062066;28;20089;-56
2022/07/10 00:41:20;;;;;;;24.67;6.72;;;;;;;16.34;100.00;98523.03;5060480;28;20568;-57
2022/07/10 00:43:59;;;;;;;23.00;6.32;;;;;;;16.06;100.00;98520.22;5062630;28;20024;-58
2022/07/10 00:46:26;;;;;;;23.55;6.40;;;;;;;16.23;100.00;98517.53;5062064;28;20105;-57
2022/07/10 00:48:52;;;;;;;24.50;6.95;;;;;;;15.95;100.00;98521.69;5063655;28;20032;-57
2022/07/10 00:51:20;;;;;;;30.55;7.03;;;;;;;15.88;100.00;98524.69;5059120;28;20081;-56
2022/07/10 00:53:46;;;;;;;25.83;6.60;;;;;;;15.94;100.00;98519.13;5061798;28;20047;-57
2022/07/10 00:56:15;;;;;;;34.40;7.57;;;;;;;15.96;100.00;98520.72;5058139;28;20028;-54
2022/07/10 00:58:41;;;;;;;24.50;6.13;;;;;;;15.85;100.00;98520.47;5061391;28;20027;-57
2022/07/10 01:01:07;;;;;;;28.77;6.95;;;;;;;15.74;100.00;98514.94;5060423;28;20037;-59
2022/07/10 01:03:32;;;;;;;31.70;7.35;;;;;;;15.60;100.00;98527.03;5061790;28;20127;-56
2022/07/10 01:05:58;;;;;;;23.77;6.10;;;;;;;15.95;100.00;98519.06;5060572;28;20028;-55
2022/07/10 01:08:24;;;;;;;33.17;7.35;;;;;;;15.58;100.00;98522.75;5061265;28;20021;-57
2022/07/10 01:10:50;;;;;;;26.17;6.70;;;;;;;15.45;100.00;98525.19;5060562;28;20036;-58
2022/07/10 01:13:16;;;;;;;28.65;7.07;;;;;;;15.42;100.00;98533.25;5061442;28;20032;-55
2022/07/10 01:15:42;;;;;;;24.23;6.50;;;;;;;15.40;100.00;98528.06;5061422;28;20472;-56
2022/07/10 01:18:07;;;;;;;23.67;6.47;;;;;;;15.57;100.00;98529.81;5060888;28;20196;-56
2022/07/10 01:20:33;;;;;;;28.10;6.82;;;;;;;15.50;100.00;98525.81;5060808;28;20492;-55
2022/07/10 01:22:59;;;;;;;29.15;6.90;;;;;;;15.66;100.00;98519.72;5061868;28;20043;-56
2022/07/10 01:25:25;;;;;;;25.02;6.10;;;;;;;15.68;100.00;98521.34;5060579;28;20075;-56
2022/07/10 01:27:51;;;;;;;22.70;6.22;;;;;;;15.56;100.00;98524.63;5061775;28;20259;-56
2022/07/10 01:30:19;;;;;;;33.97;7.78;;;;;;;15.53;100.00;98523.03;5059989;28;20077;-56
2022/07/10 01:32:44;;;;;;;27.45;6.18;;;;;;;15.67;100.00;98518.81;5060833;28;20028;-55
2022/07/10 01:35:10;;;;;;;24.05;6.30;;;;;;;15.43;100.00;98521.78;5060081;28;20035;-56
2022/07/10 01:37:36;;;;;;;31.40;7.78;;;;;;;15.26;100.00;98524.47;5061215;28;20089;-56
2022/07/10 01:40:02;;;;;;;37.15;7.95;;;;;;;15.28;100.00;98526.06;5060801;28;20039;-55
2022/07/10 01:42:27;;;;;;;25.40;6.82;;;;;;;15.23;100.00;98528.09;5059999;28;20052;-55
2022/07/10 01:44:53;;;;;;;28.50;7.60;;;;;;;15.03;100.00;98523.84;5060542;28;20044;-55
2022/07/10 01:47:19;;;;;;;34.28;7.80;;;;;;;15.05;100.00;98527.25;5060659;28;20044;-56
2022/07/10 01:49:44;;;;;;;31.42;6.90;;;;;;;15.27;100.00;98515.63;5061445;28;20643;-56
2022/07/10 01:52:10;;;;;;;27.48;7.15;;;;;;;15.01;100.00;98523.06;5059982;28;20100;-55
2022/07/10 01:54:35;;;;;;;28.45;7.60;;;;;;;14.92;100.00;98536.69;5060643;28;20036;-55
2022/07/10 01:57:01;;;;;;;30.48;7.57;;;;;;;15.21;100.00;98532.56;5061267;28;20461;-56
2022/07/10 01:59:26;;;;;;;25.60;6.97;;;;;;;15.06;100.00;98534.22;5061632;28;20031;-55
2022/07/10 02:01:51;;;;;;;23.65;6.88;;;;;;;14.98;100.00;98531.97;5059350;28;20056;-55
2022/07/10 02:07:01;;;;;;;28.25;6.85;;;;;;;15.30;100.00;98531.25;5060701;28;20417;-55
2022/07/10 02:09:26;;;;;;;26.25;6.32;;;;;;;15.51;100.00;98534.53;5061102;28;20475;-55
2022/07/10 02:11:52;;;;;;;23.80;6.55;;;;;;;15.59;100.00;98522.69;5057722;28;20036;-55
2022/07/10 02:14:17;;;;;;;28.90;6.70;;;;;;;15.39;100.00;98528.16;5059960;28;20032;-56
2022/07/10 02:16:44;;;;;;;24.48;6.90;;;;;;;15.48;100.00;98530.28;5058924;28;20042;-57
2022/07/10 02:19:10;;;;;;;25.23;6.95;;;;;;;15.35;100.00;98524.84;5048331;28;20036;-58
2022/07/10 02:21:35;;;;;;;27.00;6.60;;;;;;;15.34;100.00;98528.38;5059416;28;20532;-57
2022/07/10 02:24:01;;;;;;;26.75;7.13;;;;;;;14.88;100.00;98546.47;5060687;28;20025;-58
2022/07/10 02:26:26;;;;;;;23.30;6.80;;;;;;;15.20;100.00;98526.47;5047962;28;20498;-56
2022/07/10 02:28:51;;;;;;;28.48;6.97;;;;;;;15.36;100.00;98525.66;5060880;28;20052;-56
2022/07/10 02:31:17;;;;;;;27.27;7.18;;;;;;;15.00;100.00;98534.53;5059019;28;20044;-57
2022/07/10 02:33:42;;;;;;;23.20;6.22;;;;;;;15.42;100.00;98534.09;5060319;28;20409;-56
2022/07/10 02:36:07;;;;;;;24.70;6.85;;;;;;;15.17;100.00;98531.88;5059501;28;20041;-55
2022/07/10 02:38:33;;;;;;;29.90;7.35;;;;;;;15.13;100.00;98535.59;5060328;28;20035;-57
2022/07/10 02:40:58;;;;;;;25.55;6.20;;;;;;;15.33;100.00;98536.34;5058344;28;20575;-56
2022/07/10 02:43:24;;;;;;;31.75;7.50;;;;;;;15.33;100.00;98533.69;5060329;28;20150;-55
2022/07/10 02:45:49;;;;;;;28.13;6.88;;;;;;;15.23;100.00;98536.81;5060124;28;20509;-55
2022/07/10 02:48:15;;;;;;;24.67;6.65;;;;;;;15.30;100.00;98536.50;5060807;28;20036;-56
2022/07/10 02:50:41;;;;;;;24.42;5.47;;;;;;;16.00;100.00;98527.50;5061096;28;20043;-56
2022/07/10 02:53:06;;;;;;;26.40;7.00;;;;;;;15.25;100.00;98535.91;5060800;28;20031;-56
2022/07/10 02:55:32;;;;;;;26.02;5.82;;;;;;;15.53;100.00;98544.06;5059435;28;20137;-56
2022/07/10 02:57:59;;;;;;;19.92;5.30;;;;;;;15.51;100.00;98540.66;5060197;28;20028;-57
2022/07/10 03:00:26;;;;;;;28.00;6.78;;;;;;;15.55;100.00;98536.06;5059329;28;20056;-58
2022/07/10 03:02:52;;;;;;;27.08;6.72;;;;;;;15.51;100.00;98540.66;5060122;28;20058;-56
2022/07/10 03:05:17;;;;;;;26.85;6.65;;;;;;;15.57;100.00;98535.06;5059888;28;20032;-56
2022/07/10 03:07:43;;;;;;;27.70;5.60;;;;;;;15.87;100.00;98523.88;5060310;28;20028;-58
2022/07/10 03:10:09;;;;;;;37.20;6.40;;;;;;;16.42;100.00;98519.13;5059879;28;20033;-56
2022/07/10 03:12:34;;;;;;;27.42;5.63;;;;;;;15.85;100.00;98525.72;5060092;28;20032;-58
2022/07/10 03:15:00;;;;;;;22.65;5.72;;;;;;;15.68;100.00;98516.09;5060464;28;20029;-57
2022/07/10 03:17:25;;;;;;;21.73;5.28;;;;;;;15.32;100.00;98532.03;5059932;28;20036;-56
2022/07/10 03:19:50;;;;;;;28.80;6.22;;;;;;;15.53;100.00;98528.28;5060278;28;20033;-56
2022/07/10 03:22:16;;;;;;;23.80;5.60;;;;;;;15.51;100.00;98529.28;5059260;28;20044;-56
2022/07/10 03:24:43;;;;;;;30.42;6.10;;;;;;;15.26;100.00;98521.84;5060451;28;20685;-56
2022/07/10 03:27:08;;;;;;;25.77;5.43;;;;;;;15.46;100.00;98528.66;5059567;28;20043;-55
2022/07/10 03:29:34;;;;;;;25.15;5.32;;;;;;;15.36;100.00;98528.28;5063715;28;20028;-57
2022/07/10 03:31:59;;;;;;;23.25;5.07;;;;;;;15.27;100.00;98526.16;5061839;28;20132;-55
2022/07/10 03:34:24;;;;;;;27.02;5.07;;;;;;;15.51;100.00;98519.63;5062917;28;20063;-55
2022/07/10 03:36:51;;;;;;;28.52;5.90;;;;;;;15.10;100.00;98521.75;5063005;28;20040;-56
2022/07/10 03:39:16;;;;;;;23.52;5.00;;;;;;;15.41;100.00;98527.13;5062992;28;20506;-55
2022/07/10 03:41:42;;;;;;;23.95;5.03;;;;;;;15.22;100.00;98535.13;5062216;28;20052;-55
2022/07/10 03:44:07;;;;;;;31.27;5.85;;;;;;;15.20;100.00;98542.25;5063209;28;20024;-57
2022/07/10 03:46:32;;;;;;;20.30;4.60;;;;;;;15.28;100.00;98533.97;5063085;28;20415;-58
2022/07/10 03:48:58;;;;;;;22.92;4.50;;;;;;;16.11;100.00;98537.47;5064267;28;20115;-58
2022/07/10 03:51:23;;;;;;;24.40;5.15;;;;;;;15.98;100.00;98518.84;5062478;28;20044;-57
2022/07/10 03:53:49;;;;;;;22.23;4.80;;;;;;;15.18;100.00;98528.34;5063783;28;20389;-57
2022/07/10 03:57:53;;;;;;;25.20;5.03;;;;;;;15.72;100.00;98527.28;5062667;28;20047;-55
2022/07/10 03:58:59;;;;;;;19.20;4.18;;;;;;;15.55;100.00;98515.91;5063375;28;20516;-58
2022/07/10 04:01:24;;;;;;;26.25;4.88;;;;;;;15.66;100.00;98514.47;5062318;28;20044;-56
2022/07/10 04:03:50;;;;;;;20.63;4.57;;;;;;;15.67;100.00;98521.44;5062977;28;20584;-58
2022/07/10 04:06:15;;;;;;;23.55;5.10;;;;;;;15.37;100.00;98530.00;5063646;28;20123;-58
2022/07/10 04:08:40;;;;;;;26.33;4.75;;;;;;;16.34;100.00;98519.56;5063086;28;20067;-58
2022/07/10 04:11:06;;;;;;;25.40;4.90;;;;;;;16.04;100.00;98517.66;5062069;28;20040;-58
2022/07/10 04:13:31;;;;;;;21.65;4.10;;;;;;;15.92;100.00;98516.56;5063669;28;20298;-57
2022/07/10 04:15:57;;;;;;;24.27;4.53;;;;;;;15.74;100.00;98513.16;5062699;28;20039;-58
2022/07/10 04:18:22;;;;;;;25.52;4.57;;;;;;;15.73;100.00;98519.34;5062797;28;20466;-56
2022/07/10 04:20:47;;;;;;;20.23;4.30;;;;;;;15.43;100.00;98524.41;5062376;28;20189;-58
2022/07/10 04:23:13;;;;;;;19.42;4.00;;;;;;;16.01;100.00;98517.88;5062665;28;20110;-56
2022/07/10 04:25:38;;;;;;;26.73;4.70;;;;;;;15.75;100.00;98512.25;5062302;28;20178;-55
2022/07/10 04:28:04;;;;;;;27.50;4.47;;;;;;;16.19;100.00;98515.97;5062810;28;20396;-56
2022/07/10 04:30:29;;;;;;;28.27;4.55;;;;;;;16.25;100.00;98510.38;5061093;28;20050;-55
2022/07/10 04:32:54;;;;;;;26.55;4.32;;;;;;;15.93;100.00;98510.38;5062908;28;20402;-57
2022/07/10 04:35:20;;;;;;;22.98;4.38;;;;;;;15.16;100.00;98524.06;5061829;28;20142;-56
2022/07/10 04:37:46;;;;;;;22.60;4.22;;;;;;;15.89;100.00;98519.38;5062408;28;20478;-56
2022/07/10 04:40:11;;;;;;;35.63;5.57;;;;;;;16.25;100.00;98505.13;5060888;28;20509;-55
2022/07/10 04:42:37;;;;;;;20.10;3.88;;;;;;;15.68;100.00;98516.09;5062266;28;20865;-56
2022/07/10 04:45:02;;;;;;;23.75;4.13;;;;;;;15.57;100.00;98535.06;5063078;28;20062;-58
2022/07/10 04:47:28;;;;;;;25.90;4.55;;;;;;;15.73;100.00;98532.47;5062217;28;20998;-58
2022/07/10 04:49:53;;;;;;;22.20;3.90;;;;;;;16.11;100.00;98539.25;5062575;28;20074;-58
2022/07/10 04:52:18;;;;;;;24.13;4.22;;;;;;;16.11;100.00;98539.25;5061512;28;20044;-56
2022/07/10 04:54:44;;;;;;;29.67;3.95;;;;;;;16.22;100.00;98528.13;5061397;28;20025;-57
2022/07/10 04:57:09;;;;;;;21.17;4.28;;;;;;;16.06;100.00;98533.38;5061969;28;20044;-58
2022/07/10 04:59:34;;;;;;;21.33;4.05;;;;;;;16.13;100.00;98532.13;5067931;28;20043;-56
2022/07/10 05:02:00;;;;;;;18.77;3.63;;;;;;;17.13;100.00;98523.81;5060986;28;20060;-56
2022/07/10 05:04:25;;;;;;;20.80;3.70;;;;;;;16.15;100.00;98533.72;5061986;28;20028;-58
2022/07/10 05:06:51;;;;;;;22.13;3.67;;;;;;;16.24;100.00;98550.78;5061238;28;20054;-56
2022/07/10 05:09:19;;;;;;;24.75;3.80;;;;;;;16.27;100.00;98544.53;5061692;28;20047;-58
2022/07/10 05:11:45;;;;;;;28.55;4.75;;;;;;;16.17;100.00;98544.16;5060675;28;20071;-58
2022/07/10 05:14:10;;;;;;;21.08;4.00;;;;;;;15.96;100.00;98554.94;5062112;28;20024;-58
2022/07/10 05:16:35;;;;;;;19.33;3.67;;;;;;;16.03;100.00;98551.97;5061519;28;20044;-58
2022/07/10 05:19:01;;;;;;;20.90;4.18;;;;;;;16.55;100.00;98542.00;5060319;28;20086;-55
2022/07/10 05:21:26;;;;;;;22.23;3.95;;;;;;;16.35;100.00;98543.13;5060632;28;20451;-56
2022/07/10 05:23:52;;;;;;;26.70;4.05;;;;;;;15.95;100.00;98540.09;5060952;28;20055;-56
2022/07/10 05:26:18;;;;;;;20.50;3.55;;;;;;;17.02;100.00;98536.75;5060633;28;20925;-56
2022/07/10 05:28:43;;;;;;;17.88;3.78;;;;;;;16.42;100.00;98546.28;5061353;28;20035;-56
2022/07/10 05:31:08;;;;;;;19.13;3.40;;;;;;;15.84;100.00;98547.69;5059750;28;20062;-57
2022/07/10 05:33:34;;;;;;;24.27;4.00;;;;;;;16.37;100.00;98550.94;5061022;28;20517;-55
2022/07/10 05:35:59;;;;;;;25.58;4.03;;;;;;;15.19;100.00;98553.66;5060474;28;20033;-56
2022/07/10 05:38:25;;;;;;;23.00;3.80;;;;;;;16.58;100.00;98547.13;5060701;28;20086;-55
2022/07/10 05:40:52;;;;;;;21.85;3.60;;;;;;;16.06;100.00;98538.66;5059380;28;20043;-56
2022/07/10 05:43:18;;;;;;;25.33;3.70;;;;;;;15.90;100.00;98552.66;5060484;28;20080;-55
2022/07/10 05:45:43;;;;;;;19.02;3.10;;;;;;;15.81;100.00;98547.88;5060359;28;20067;-56
2022/07/10 05:48:10;;;;;;;22.83;3.55;;;;;;;16.68;100.00;98546.59;5060385;28;20043;-55
2022/07/10 05:50:35;;;;;;;22.83;3.72;;;;;;;16.51;100.00;98547.56;5059798;28;20067;-57
2022/07/10 05:53:01;;;;;;;21.48;4.05;;;;;;;17.70;100.00;98544.13;5060858;28;20032;-56
2022/07/10 05:55:26;;;;;;;21.20;3.72;;;;;;;17.97;100.00;98536.28;5059840;28;20036;-58
2022/07/10 05:57:52;;;;;;;15.80;2.85;;;;;;;19.76;100.00;98520.09;5061288;28;20107;-57
2022/07/10 06:00:17;;;;;;;21.40;3.53;;;;;;;19.96;100.00;98531.03;5059249;28;20139;-56
2022/07/10 06:02:43;;;;;;;13.07;2.47;;;;;;;21.16;100.00;98535.53;5061294;28;20036;-58
2022/07/10 06:05:09;;;;;;;15.77;2.95;;;;;;;21.85;100.00;98529.38;5060134;28;20026;-58
2022/07/10 06:07:34;;;;;;;21.88;3.53;;;;;;;21.03;100.00;98532.13;5060666;28;20030;-56
2022/07/10 06:10:01;;;;;;;24.35;4.35;;;;;;;21.33;100.00;98531.59;5059935;28;20039;-56
2022/07/10 06:12:26;;;;;;;18.80;3.10;;;;;;;20.53;100.00;98527.81;5059408;28;20044;-56
2022/07/10 06:14:51;;;;;;;18.95;3.30;;;;;;;21.03;100.00;98526.84;5060291;28;20406;-56
2022/07/10 06:17:17;;;;;;;20.90;3.53;;;;;;;19.57;100.00;98530.22;5059813;28;20109;-57
2022/07/10 06:19:42;;;;;;;20.05;3.35;;;;;;;19.11;100.00;98538.66;5060395;28;20079;-56
2022/07/10 06:24:51;;;;;;;18.23;3.13;;;;;;;20.26;100.00;98533.31;5060258;28;20043;-56
2022/07/10 06:27:17;;;;;;;18.80;3.13;;;;;;;19.14;100.00;98538.47;5060048;28;20037;-57
2022/07/10 06:29:42;;;;;;;18.15;3.13;;;;;;;19.36;100.00;98538.69;5059680;28;20047;-56
2022/07/10 06:32:08;;;;;;;22.13;3.63;;;;;;;20.05;100.00;98537.50;5059018;28;20037;-56
2022/07/10 06:34:34;;;;;;;18.02;3.08;;;;;;;19.27;100.00;98534.03;5059494;28;20504;-57
2022/07/10 06:36:59;;;;;;;17.63;2.78;;;;;;;20.91;100.00;98532.06;5059603;28;20045;-56
2022/07/10 06:39:25;;;;;;;15.32;2.90;;;;;;;20.36;100.00;98530.81;5060313;28;20394;-57
2022/07/10 06:41:50;;;;;;;19.90;3.20;;;;;;;19.41;100.00;98536.59;5059412;28;20064;-56
2022/07/10 06:44:16;;;;;;;20.63;3.47;;;;;;;18.87;100.00;98537.53;5059550;28;20453;-58
2022/07/10 06:46:41;;;;;;;16.02;3.10;;;;;;;19.05;100.00;98535.47;5059896;28;20033;-59
2022/07/10 06:49:08;;;;;;;18.13;3.30;;;;;;;19.30;100.00;98533.81;5060839;28;20027;-58
2022/07/10 06:51:34;;;;;;;35.08;4.95;;;;;;;22.20;100.00;98534.50;5056653;28;20558;-59
2022/07/10 06:53:59;;;;;;;22.33;3.83;;;;;;;24.10;81.92;98527.53;5057604;28;20877;-58
2022/07/10 06:56:24;;;;;;;15.00;2.88;;;;;;;24.96;72.31;98525.13;5058171;28;20032;-57
2022/07/10 06:58:50;;;;;;;16.50;3.00;;;;;;;26.62;59.31;98521.88;5060251;28;20032;-57
2022/07/10 07:01:15;;;;;;;13.30;2.70;;;;;;;26.40;53.31;98523.13;5059104;28;20044;-56
2022/07/10 07:03:40;;;;;;;22.15;4.35;;;;;;;23.09;65.16;98532.59;5060254;28;20028;-57
2022/07/10 07:06:06;;;;;;;18.83;3.72;;;;;;;22.29;80.14;98533.81;5063476;28;20379;-58
2022/07/10 07:08:32;;;;;;;13.48;2.58;;;;;;;22.09;76.08;98532.75;5063572;28;20028;-56
2022/07/10 07:10:57;;;;;;;17.98;3.45;;;;;;;21.22;86.70;98537.72;5062374;28;20063;-56
2022/07/10 07:13:23;;;;;;;18.02;3.50;;;;;;;20.28;95.05;98542.00;5063616;28;20032;-59
2022/07/10 07:15:59;;;;;;;14.85;3.10;;;;;;;20.10;100.00;98544.16;5063019;28;20117;-58
2022/07/10 07:18:32;;;;;;;16.33;3.00;;;;;;;19.19;100.00;98542.50;5063653;28;20039;-57
2022/07/10 07:23:43;;;;;;;19.27;3.35;;;;;;;19.38;100.00;98551.81;5063368;28;20039;-56
2022/07/10 07:26:08;;;;;;;15.90;2.88;;;;;;;18.90;100.00;98549.72;5062862;28;20036;-56
2022/07/10 07:28:33;;;;;;;21.42;3.28;;;;;;;18.85;100.00;98554.47;5063405;28;20581;-56
2022/07/10 07:30:59;;;;;;;18.35;2.97;;;;;;;19.47;91.29;98555.63;5062043;28;20097;-57
2022/07/10 07:33:25;;;;;;;22.85;3.58;;;;;;;18.78;88.14;98558.44;5062980;28;20032;-57
2022/07/10 07:35:50;;;;;;;15.98;2.80;;;;;;;20.48;83.51;98558.25;5062940;28;20033;-56
2022/07/10 07:38:15;;;;;;;17.20;2.83;;;;;;;20.67;82.99;98563.06;5063312;28;20036;-55
2022/07/10 07:40:41;;;;;;;20.33;3.22;;;;;;;19.90;82.29;98557.97;5062031;28;20494;-56
2022/07/10 07:43:07;;;;;;;14.55;3.10;;;;;;;20.39;79.03;98571.19;5063423;28;20024;-56
2022/07/10 07:45:33;;;;;;;17.63;2.90;;;;;;;18.96;79.59;98559.88;5061627;28;20050;-56
2022/07/10 07:48:01;;;;;;;18.70;3.10;;;;;;;20.41;78.60;98558.69;5063122;28;20028;-56
2022/07/10 07:50:31;;;;;;;20.35;3.20;;;;;;;19.65;81.36;98557.00;5061871;28;21070;-55
2022/07/10 07:52:57;;;;;;;21.00;3.33;;;;;;;19.87;81.04;98563.47;5063113;28;20040;-56
2022/07/10 07:55:23;;;;;;;16.20;2.72;;;;;;;18.35;84.57;98566.50;5062235;28;20037;-56
2022/07/10 07:57:55;;;;;;;17.85;2.95;;;;;;;17.84;100.00;98573.13;5062825;28;20012;-55
2022/07/10 08:00:23;;;;;;;18.45;2.95;;;;;;;18.46;100.00;98569.31;5061897;28;20028;-55
2022/07/10 08:02:50;;;;;;;18.73;3.17;;;;;;;18.15;100.00;98568.59;5060928;28;20024;-55
2022/07/10 08:05:16;;;;;;;19.00;3.00;;;;;;;18.98;100.00;98565.91;5062202;28;20024;-55
2022/07/10 08:07:44;;;;;;;22.05;3.60;;;;;;;18.66;100.00;98562.72;5062415;28;20082;-55
2022/07/10 08:10:18;;;;;;;25.73;3.65;;;;;;;18.83;100.00;98565.13;5060979;28;20494;-57
2022/07/10 08:12:45;;;;;;;15.90;2.63;;;;;;;20.27;82.81;98566.78;5062758;28;20040;-56
2022/07/10 08:15:11;;;;;;;17.92;2.58;;;;;;;21.15;65.75;98552.41;5061836;28;20107;-55
2022/07/10 08:17:37;;;;;;;19.55;2.97;;;;;;;20.14;78.50;98550.91;5062824;28;20032;-56
2022/07/10 08:20:04;;;;;;;24.98;3.95;;;;;;;19.71;83.48;98548.63;5061890;28;20028;-55
2022/07/10 08:22:29;;;;;;;18.15;3.00;;;;;;;19.42;74.83;98554.13;5062221;28;20040;-56
2022/07/10 08:24:56;;;;;;;20.55;3.33;;;;;;;20.22;74.57;98553.03;5062312;28;20043;-55
2022/07/10 08:27:21;;;;;;;13.52;2.55;;;;;;;19.87;74.80;98550.22;5062467;28;20031;-57
2022/07/10 08:29:47;;;;;;;16.98;2.83;;;;;;;21.96;67.60;98553.25;5062440;28;20033;-57
2022/07/10 08:32:12;;;;;;;13.95;2.55;;;;;;;23.52;56.59;98544.06;5061441;28;20106;-56
2022/07/10 08:34:38;;;;;;;14.82;3.15;;;;;;;24.16;48.78;98534.13;5061909;28;20093;-55
2022/07/10 08:37:03;;;;;;;18.38;3.53;;;;;;;25.26;46.25;98541.13;5061844;28;20036;-56
2022/07/10 08:39:29;;;;;;;20.13;3.50;;;;;;;26.48;41.99;98543.75;5062929;28;20124;-56
2022/07/10 08:41:55;;;;;;;15.50;2.80;;;;;;;27.31;40.04;98530.16;5061128;28;20048;-56
2022/07/10 08:44:21;;;;;;;10.48;2.20;;;;;;;27.15;38.94;98535.34;5062309;28;20035;-56
2022/07/10 08:46:46;;;;;;;11.25;2.45;;;;;;;28.54;37.11;98536.13;5061354;28;20040;-56
2022/07/10 08:49:15;;;;;;;12.80;2.50;;;;;;;26.86;38.43;98541.81;5062088;28;20024;-56
2022/07/10 08:51:42;;;;;;;13.73;2.58;;;;;;;24.37;40.68;98540.22;5060881;28;20036;-56
2022/07/10 08:54:08;;;;;;;12.73;2.53;;;;;;;24.54;43.31;98532.56;5062093;28;20107;-56
2022/07/10 08:56:35;;;;;;;11.80;2.40;;;;;;;23.28;45.15;98534.53;5061893;28;20748;-57
2022/07/10 08:59:04;;;;;;;12.07;2.35;;;;;;;23.45;46.74;98537.56;5068774;28;20560;-56
2022/07/10 09:01:30;;;;;;;16.38;2.72;;;;;;;22.58;47.29;98543.88;5059219;28;20036;-56
2022/07/10 09:03:55;;;;;;;14.95;2.33;;;;;;;22.75;47.06;98539.84;5061269;28;20561;-58
2022/07/10 09:06:21;;;;;;;13.80;2.70;;;;;;;21.41;48.67;98546.91;5061217;28;20037;-56
2022/07/10 09:08:58;;;;;;;17.25;2.85;;;;;;;21.92;48.62;98546.50;5062050;28;20023;-57
2022/07/10 09:11:25;;;;;;;18.45;2.85;;;;;;;20.93;53.70;98543.41;5060321;28;20127;-58
2022/07/10 09:14:04;;;;;;;20.05;2.92;;;;;;;21.26;52.83;98544.47;5060709;28;20524;-58
2022/07/10 09:16:34;;;;;;;15.30;2.50;;;;;;;21.95;52.86;98543.63;5060833;28;20036;-56
2022/07/10 09:19:14;;;;;;;12.55;2.40;;;;;;;21.64;50.80;98550.50;5061146;28;20043;-57
2022/07/10 09:21:40;;;;;;;17.85;3.28;;;;;;;21.84;50.26;98549.78;5060158;28;20074;-58
2022/07/10 09:24:08;;;;;;;15.20;2.78;;;;;;;22.59;46.92;98544.72;5060794;28;20242;-58
2022/07/10 09:26:37;;;;;;;19.15;3.25;;;;;;;21.64;49.05;98548.69;5060394;28;20047;-57
2022/07/10 09:29:08;;;;;;;14.88;2.63;;;;;;;23.16;48.29;98543.56;5061353;28;20452;-56
2022/07/10 09:31:53;;;;;;;17.27;2.85;;;;;;;22.50;46.59;98549.84;5059469;28;20425;-55
2022/07/10 09:34:37;;;;;;;14.05;2.38;;;;;;;20.55;49.04;98548.91;5060849;28;20110;-56
2022/07/10 09:37:21;;;;;;;15.70;2.78;;;;;;;21.35;50.13;98556.19;5060513;28;20028;-55
2022/07/10 09:39:59;;;;;;;14.27;2.65;;;;;;;20.22;49.75;98556.53;5060885;28;20074;-55
2022/07/10 09:42:32;;;;;;;17.17;2.47;;;;;;;20.99;52.74;98563.34;5059634;28;20051;-56
2022/07/10 09:45:10;;;;;;;12.35;2.25;;;;;;;20.44;57.40;98554.09;5060945;28;20054;-56
2022/07/10 09:47:36;;;;;;;14.25;2.20;;;;;;;20.06;55.01;98563.88;5048093;28;20643;-55
2022/07/10 09:50:01;;;;;;;21.60;3.50;;;;;;;20.72;56.51;98560.94;5060618;28;20032;-56
2022/07/10 09:52:27;;;;;;;12.75;2.20;;;;;;;19.24;58.00;98566.84;5060777;28;20044;-56
2022/07/10 09:54:53;;;;;;;18.58;3.03;;;;;;;19.60;55.74;98561.75;5060081;28;20131;-56
2022/07/10 09:57:20;;;;;;;14.50;2.28;;;;;;;20.66;52.85;98554.28;5059062;28;20043;-56
2022/07/10 09:59:46;;;;;;;12.77;2.25;;;;;;;21.53;53.76;98559.28;5059613;28;20039;-58
2022/07/10 10:02:13;;;;;;;18.25;2.92;;;;;;;22.26;49.83;98555.34;5059532;28;20128;-56
2022/07/10 10:04:41;;;;;;;13.07;2.30;;;;;;;23.16;47.81;98545.38;5060693;28;20966;-57
2022/07/10 10:07:12;;;;;;;16.48;2.80;;;;;;;22.09;50.70;98539.84;5059254;28;20044;-56
2022/07/10 10:09:45;;;;;;;15.60;2.57;;;;;;;21.46;51.17;98550.09;5058252;28;20077;-56
2022/07/10 10:12:17;;;;;;;21.58;3.25;;;;;;;21.25;51.48;98548.09;5057104;28;20616;-58
2022/07/10 10:14:43;;;;;;;;;;;;;;;22.77;51.92;98553.84;5059972;28;20028;-58
2022/07/10 10:17:09;;;;;;;15.55;2.47;;;;;;;22.60;49.92;98562.38;5060258;28;19920;-58
2022/07/10 10:22:22;;;;;;;16.73;2.80;;;;;;;21.21;51.48;98554.63;5059692;28;20163;-57
2022/07/10 10:24:48;;;;;;;13.20;2.35;;;;;;;21.05;51.19;98554.91;5060422;28;20116;-58
2022/07/10 10:27:14;;;;;;;15.80;2.70;;;;;;;21.44;53.57;98559.97;5060507;28;20074;-56
2022/07/10 10:29:40;;;;;;;11.68;2.10;;;;;;;21.53;50.26;98556.63;5060744;28;20638;-57
2022/07/10 10:32:07;;;;;;;12.75;2.22;;;;;;;21.14;51.99;98554.22;5059742;28;20693;-56
2022/07/10 10:34:55;;;;;;;15.60;2.95;;;;;;;20.51;54.78;98556.22;5059952;28;20862;-58
2022/07/10 10:37:26;;;;;;;16.13;2.63;;;;;;;20.29;55.75;98553.41;5059869;28;20135;-57
2022/07/10 10:39:55;;;;;;;14.30;2.67;;;;;;;21.08;53.78;98551.19;5064864;28;20119;-56
2022/07/10 10:42:37;;;;;;;14.60;2.50;;;;;;;21.07;55.16;98560.94;5064418;28;20040;-57
2022/07/10 10:45:27;;;;;;;15.70;2.70;;;;;;;20.45;54.78;98556.66;5063696;28;20032;-55
2022/07/10 10:47:59;;;;;;;13.70;2.30;;;;;;;20.18;56.30;98551.53;5065492;28;20037;-58
2022/07/10 10:50:46;;;;;;;13.20;2.38;;;;;;;20.50;55.71;98545.72;5063456;28;20774;-57
2022/07/10 10:53:27;;;;;;;16.27;2.67;;;;;;;19.98;56.30;98551.19;5064479;28;20024;-55
2022/07/10 10:56:02;;;;;;;16.00;2.63;;;;;;;20.10;57.63;98546.78;5063773;28;20040;-57
2022/07/10 10:58:39;;;;;;;15.43;2.63;;;;;;;21.12;55.38;98552.66;5064301;28;20259;-59
2022/07/10 11:01:28;;;;;;;18.00;3.08;;;;;;;20.41;55.60;98547.25;5063659;28;20132;-58
2022/07/10 11:04:08;;;;;;;16.70;2.92;;;;;;;19.80;55.97;98553.31;5064265;28;20028;-58
2022/07/10 11:06:52;;;;;;;14.98;2.85;;;;;;;20.85;56.00;98560.88;5063739;28;20048;-58
2022/07/10 11:09:28;;;;;;;16.63;2.95;;;;;;;20.77;57.12;98553.50;5063701;28;20036;-58
2022/07/10 11:12:07;;;;;;;19.73;3.15;;;;;;;20.72;57.48;98560.94;5062857;28;20029;-58
2022/07/10 11:14:36;;;;;;;11.45;2.30;;;;;;;20.60;57.15;98560.88;5063892;28;20024;-58
2022/07/10 11:17:01;;;;;;;16.05;2.95;;;;;;;20.46;57.53;98561.00;5063575;28;20036;-56
2022/07/10 11:19:29;;;;;;;13.30;2.55;;;;;;;20.45;58.07;98558.47;5062501;28;20127;-55
2022/07/10 11:22:09;;;;;;;16.55;2.95;;;;;;;20.52;56.77;98551.75;5062206;28;20117;-56
2022/07/10 11:25:14;;;;;;;13.82;2.30;;;;;;;21.43;54.31;98552.94;5063633;28;20714;-56
2022/07/10 11:27:51;;;;;;;15.98;2.75;;;;;;;20.68;58.28;98555.00;5064108;28;20040;-55
2022/07/10 11:30:17;;;;;;;17.48;2.78;;;;;;;20.30;61.16;98555.97;5061508;28;20032;-55